sensor_id;sensor_type;location;lat;lon;timestamp;pressure;altitude;pressure_sealevel;temperature;humidity
72612;BME280;60655;52.182;4.474;2023-09-08T00:00:24;101607.84;;;20.57;83.96
72612;BME280;60655;52.182;4.474;2023-09-08T00:02:26;101596.22;;;20.46;84.58
72612;BME280;60655;52.182;4.474;2023-09-08T00:04:27;101601.31;;;20.43;84.88
72612;BME280;60655;52.182;4.474;2023-09-08T00:06:28;101598.66;;;20.48;84.72
72612;BME280;60655;52.182;4.474;2023-09-08T00:08:29;101597.03;;;20.52;84.00
72612;BME280;60655;52.182;4.474;2023-09-08T00:10:29;101583.25;;;20.43;84.33
72612;BME280;60655;52.182;4.474;2023-09-08T00:12:30;101596.44;;;20.40;84.77
72612;BME280;60655;52.182;4.474;2023-09-08T00:14:31;101601.75;;;20.30;85.02
72612;BME280;60655;52.182;4.474;2023-09-08T00:16:32;101602.00;;;20.28;85.13
72612;BME280;60655;52.182;4.474;2023-09-08T00:18:33;101602.47;;;20.10;86.01
72612;BME280;60655;52.182;4.474;2023-09-08T00:20:34;101599.78;;;20.10;85.57
72612;BME280;60655;52.182;4.474;2023-09-08T00:22:37;101599.13;;;19.98;86.32
72612;BME280;60655;52.182;4.474;2023-09-08T00:24:38;101603.97;;;19.96;86.27
72612;BME280;60655;52.182;4.474;2023-09-08T00:26:39;101602.91;;;19.97;86.49
72612;BME280;60655;52.182;4.474;2023-09-08T00:28:40;101602.13;;;20.01;86.30
72612;BME280;60655;52.182;4.474;2023-09-08T00:30:41;101604.31;;;20.04;86.23
72612;BME280;60655;52.182;4.474;2023-09-08T00:32:42;101610.25;;;20.06;86.16
72612;BME280;60655;52.182;4.474;2023-09-08T00:34:43;101608.34;;;20.02;86.45
72612;BME280;60655;52.182;4.474;2023-09-08T00:36:43;101605.84;;;19.90;87.42
72612;BME280;60655;52.182;4.474;2023-09-08T00:38:44;101605.09;;;20.00;87.08
72612;BME280;60655;52.182;4.474;2023-09-08T00:40:45;101605.34;;;19.98;86.73
72612;BME280;60655;52.182;4.474;2023-09-08T00:42:46;101602.91;;;19.97;86.43
72612;BME280;60655;52.182;4.474;2023-09-08T00:44:48;101603.72;;;19.97;86.73
72612;BME280;60655;52.182;4.474;2023-09-08T00:46:50;101604.22;;;19.89;87.62
72612;BME280;60655;52.182;4.474;2023-09-08T00:48:51;101600.72;;;19.94;87.37
72612;BME280;60655;52.182;4.474;2023-09-08T00:50:52;101604.50;;;19.93;87.05
72612;BME280;60655;52.182;4.474;2023-09-08T00:52:53;101607.69;;;19.84;87.39
72612;BME280;60655;52.182;4.474;2023-09-08T00:54:54;101601.53;;;19.89;87.03
72612;BME280;60655;52.182;4.474;2023-09-08T00:56:57;101606.41;;;19.92;86.86
72612;BME280;60655;52.182;4.474;2023-09-08T00:58:58;101602.66;;;19.98;86.16
72612;BME280;60655;52.182;4.474;2023-09-08T01:00:59;101595.88;;;19.96;86.42
72612;BME280;60655;52.182;4.474;2023-09-08T01:03:00;101606.69;;;19.96;86.60
72612;BME280;60655;52.182;4.474;2023-09-08T01:05:01;101595.63;;;19.92;86.62
72612;BME280;60655;52.182;4.474;2023-09-08T01:07:03;101592.88;;;19.87;86.48
72612;BME280;60655;52.182;4.474;2023-09-08T01:09:05;101603.72;;;19.92;86.69
72612;BME280;60655;52.182;4.474;2023-09-08T01:11:06;101605.78;;;19.80;87.54
72612;BME280;60655;52.182;4.474;2023-09-08T01:13:08;101597.22;;;19.93;85.91
72612;BME280;60655;52.182;4.474;2023-09-08T01:15:09;101583.16;;;19.86;85.65
72612;BME280;60655;52.182;4.474;2023-09-08T01:17:10;101602.59;;;19.88;85.95
72612;BME280;60655;52.182;4.474;2023-09-08T01:19:13;101599.81;;;19.78;86.33
72612;BME280;60655;52.182;4.474;2023-09-08T01:25:40;101601.44;;;19.79;86.45
72612;BME280;60655;52.182;4.474;2023-09-08T01:27:53;101604.63;;;19.71;86.93
72612;BME280;60655;52.182;4.474;2023-09-08T01:29:55;101598.59;;;19.59;87.84
72612;BME280;60655;52.182;4.474;2023-09-08T01:31:57;101594.34;;;19.68;87.01
72612;BME280;60655;52.182;4.474;2023-09-08T01:34:01;101602.66;;;19.61;86.94
72612;BME280;60655;52.182;4.474;2023-09-08T01:36:07;101591.34;;;19.59;87.21
72612;BME280;60655;52.182;4.474;2023-09-08T01:38:08;101592.66;;;19.57;87.43
72612;BME280;60655;52.182;4.474;2023-09-08T01:40:10;101594.84;;;19.65;86.66
72612;BME280;60655;52.182;4.474;2023-09-08T01:42:11;101585.34;;;19.52;87.65
72612;BME280;60655;52.182;4.474;2023-09-08T01:44:12;101590.47;;;19.53;86.99
72612;BME280;60655;52.182;4.474;2023-09-08T01:46:13;101590.84;;;19.40;87.58
72612;BME280;60655;52.182;4.474;2023-09-08T01:48:14;101589.28;;;19.44;86.98
72612;BME280;60655;52.182;4.474;2023-09-08T01:50:15;101585.16;;;19.37;87.54
72612;BME280;60655;52.182;4.474;2023-09-08T01:52:22;101583.25;;;19.32;87.59
72612;BME280;60655;52.182;4.474;2023-09-08T01:54:23;101581.38;;;19.33;87.55
72612;BME280;60655;52.182;4.474;2023-09-08T01:56:24;101589.72;;;19.31;87.40
72612;BME280;60655;52.182;4.474;2023-09-08T01:58:25;101572.06;;;19.18;87.96
72612;BME280;60655;52.182;4.474;2023-09-08T02:00:27;101576.66;;;19.18;88.02
72612;BME280;60655;52.182;4.474;2023-09-08T02:02:27;101583.97;;;19.22;87.69
72612;BME280;60655;52.182;4.474;2023-09-08T02:04:29;101585.53;;;19.18;88.28
72612;BME280;60655;52.182;4.474;2023-09-08T02:06:30;101591.75;;;19.19;88.24
72612;BME280;60655;52.182;4.474;2023-09-08T02:08:30;101589.91;;;19.25;88.21
72612;BME280;60655;52.182;4.474;2023-09-08T02:10:31;101593.88;;;19.17;88.89
72612;BME280;60655;52.182;4.474;2023-09-08T02:12:32;101591.94;;;19.12;89.71
72612;BME280;60655;52.182;4.474;2023-09-08T02:14:33;101593.06;;;19.16;89.20
72612;BME280;60655;52.182;4.474;2023-09-08T02:16:34;101590.44;;;19.21;88.61
72612;BME280;60655;52.182;4.474;2023-09-08T02:18:35;101591.84;;;19.29;87.81
72612;BME280;60655;52.182;4.474;2023-09-08T02:20:36;101586.31;;;19.14;88.06
72612;BME280;60655;52.182;4.474;2023-09-08T02:22:37;101587.69;;;18.89;88.99
72612;BME280;60655;52.182;4.474;2023-09-08T02:24:38;101590.63;;;18.88;89.88
72612;BME280;60655;52.182;4.474;2023-09-08T02:26:40;101589.31;;;18.91;89.65
72612;BME280;60655;52.182;4.474;2023-09-08T02:28:41;101574.47;;;18.88;89.21
72612;BME280;60655;52.182;4.474;2023-09-08T02:30:42;101587.47;;;18.96;89.12
72612;BME280;60655;52.182;4.474;2023-09-08T02:32:43;101577.84;;;19.00;88.88
72612;BME280;60655;52.182;4.474;2023-09-08T02:34:44;101575.41;;;18.99;89.21
72612;BME280;60655;52.182;4.474;2023-09-08T02:36:45;101577.91;;;18.83;90.09
72612;BME280;60655;52.182;4.474;2023-09-08T02:38:48;101578.22;;;18.87;90.07
72612;BME280;60655;52.182;4.474;2023-09-08T02:40:49;101575.28;;;18.88;89.75
72612;BME280;60655;52.182;4.474;2023-09-08T02:42:50;101575.84;;;18.91;89.90
72612;BME280;60655;52.182;4.474;2023-09-08T02:44:51;101565.38;;;18.94;89.89
72612;BME280;60655;52.182;4.474;2023-09-08T02:46:52;101580.03;;;18.81;90.46
72612;BME280;60655;52.182;4.474;2023-09-08T02:48:53;101578.09;;;18.77;90.82
72612;BME280;60655;52.182;4.474;2023-09-08T02:50:54;101576.91;;;18.89;89.50
72612;BME280;60655;52.182;4.474;2023-09-08T02:52:55;101575.34;;;18.94;89.26
72612;BME280;60655;52.182;4.474;2023-09-08T02:54:56;101567.25;;;18.94;89.19
72612;BME280;60655;52.182;4.474;2023-09-08T02:56:57;101580.03;;;18.81;89.47
72612;BME280;60655;52.182;4.474;2023-09-08T02:58:58;101582.28;;;18.89;89.22
72612;BME280;60655;52.182;4.474;2023-09-08T03:01:12;101574.97;;;18.85;89.63
72612;BME280;60655;52.182;4.474;2023-09-08T03:03:14;101577.91;;;18.83;89.91
72612;BME280;60655;52.182;4.474;2023-09-08T03:05:15;101576.78;;;18.79;90.07
72612;BME280;60655;52.182;4.474;2023-09-08T03:07:16;101575.69;;;18.75;90.23
72612;BME280;60655;52.182;4.474;2023-09-08T03:09:17;101576.78;;;18.79;89.97
72612;BME280;60655;52.182;4.474;2023-09-08T03:11:18;101571.13;;;18.76;90.31
72612;BME280;60655;52.182;4.474;2023-09-08T03:13:19;101569.69;;;18.68;90.54
72612;BME280;60655;52.182;4.474;2023-09-08T03:15:20;101569.19;;;18.54;91.58
72612;BME280;60655;52.182;4.474;2023-09-08T03:17:21;101576.41;;;18.49;91.91
72612;BME280;60655;52.182;4.474;2023-09-08T03:19:22;101572.72;;;18.55;91.69
72612;BME280;60655;52.182;4.474;2023-09-08T03:21:24;101570.84;;;18.55;91.59
72612;BME280;60655;52.182;4.474;2023-09-08T03:23:24;101566.69;;;18.65;90.70
72612;BME280;60655;52.182;4.474;2023-09-08T03:25:25;101566.34;;;18.61;91.33
72612;BME280;60655;52.182;4.474;2023-09-08T03:27:26;101563.91;;;18.60;91.47
72612;BME280;60655;52.182;4.474;2023-09-08T03:29:27;101562.50;;;18.57;91.34
72612;BME280;60655;52.182;4.474;2023-09-08T03:31:28;101544.59;;;18.63;90.33
72612;BME280;60655;52.182;4.474;2023-09-08T03:33:29;101555.50;;;18.56;90.67
72612;BME280;60655;52.182;4.474;2023-09-08T03:35:30;101549.31;;;18.55;91.16
72612;BME280;60655;52.182;4.474;2023-09-08T03:37:31;101552.16;;;18.44;91.54
72612;BME280;60655;52.182;4.474;2023-09-08T03:39:32;101549.88;;;18.36;92.09
72612;BME280;60655;52.182;4.474;2023-09-08T03:41:33;101548.25;;;18.35;92.10
72612;BME280;60655;52.182;4.474;2023-09-08T03:43:34;101545.13;;;18.43;91.58
72612;BME280;60655;52.182;4.474;2023-09-08T03:45:35;101549.50;;;18.49;91.23
72612;BME280;60655;52.182;4.474;2023-09-08T03:47:36;101550.19;;;18.39;92.20
72612;BME280;60655;52.182;4.474;2023-09-08T03:49:37;101554.28;;;18.42;92.83
72612;BME280;60655;52.182;4.474;2023-09-08T03:51:38;101553.47;;;18.41;92.47
72612;BME280;60655;52.182;4.474;2023-09-08T03:53:39;101553.47;;;18.41;92.25
72612;BME280;60655;52.182;4.474;2023-09-08T03:55:40;101552.31;;;18.37;92.10
72612;BME280;60655;52.182;4.474;2023-09-08T03:57:41;101549.88;;;18.36;92.12
72612;BME280;60655;52.182;4.474;2023-09-08T03:59:42;101548.81;;;18.15;92.90
72612;BME280;60655;52.182;4.474;2023-09-08T04:01:42;101555.06;;;18.20;92.99
72612;BME280;60655;52.182;4.474;2023-09-08T04:03:43;101551.31;;;18.21;92.73
72612;BME280;60655;52.182;4.474;2023-09-08T04:05:44;101540.44;;;18.11;92.99
72612;BME280;60655;52.182;4.474;2023-09-08T04:07:46;101546.31;;;18.08;93.49
72612;BME280;60655;52.182;4.474;2023-09-08T04:09:47;101551.81;;;18.18;93.67
72612;BME280;60655;52.182;4.474;2023-09-08T04:11:47;101559.91;;;18.18;93.60
72612;BME280;60655;52.182;4.474;2023-09-08T04:13:48;101545.63;;;18.18;93.28
72612;BME280;60655;52.182;4.474;2023-09-08T04:15:49;101552.75;;;18.29;92.81
72612;BME280;60655;52.182;4.474;2023-09-08T04:17:50;101549.75;;;18.26;92.98
72612;BME280;60655;52.182;4.474;2023-09-08T04:19:51;101546.56;;;18.29;92.84
72612;BME280;60655;52.182;4.474;2023-09-08T04:21:52;101556.81;;;18.32;92.67
72612;BME280;60655;52.182;4.474;2023-09-08T04:23:53;101551.88;;;18.23;92.58
72612;BME280;60655;52.182;4.474;2023-09-08T04:25:54;101558.13;;;18.29;92.73
72612;BME280;60655;52.182;4.474;2023-09-08T04:27:55;101556.00;;;18.31;92.21
72612;BME280;60655;52.182;4.474;2023-09-08T04:29:56;101546.63;;;18.34;92.21
72612;BME280;60655;52.182;4.474;2023-09-08T04:31:57;101549.13;;;18.40;92.03
72612;BME280;60655;52.182;4.474;2023-09-08T04:33:58;101544.50;;;18.36;92.12
72612;BME280;60655;52.182;4.474;2023-09-08T04:35:58;101557.88;;;18.31;92.86
72612;BME280;60655;52.182;4.474;2023-09-08T04:37:59;101545.09;;;18.21;93.27
72612;BME280;60655;52.182;4.474;2023-09-08T04:40:00;101547.25;;;18.19;93.38
72612;BME280;60655;52.182;4.474;2023-09-08T04:42:01;101562.59;;;18.18;93.85
72612;BME280;60655;52.182;4.474;2023-09-08T04:44:03;101554.22;;;17.98;94.27
72612;BME280;60655;52.182;4.474;2023-09-08T04:46:04;101568.13;;;18.12;93.94
72612;BME280;60655;52.182;4.474;2023-09-08T04:48:05;101559.94;;;18.23;92.70
72612;BME280;60655;52.182;4.474;2023-09-08T04:50:06;101571.16;;;18.15;93.61
72612;BME280;60655;52.182;4.474;2023-09-08T04:52:07;101566.44;;;18.06;94.26
72612;BME280;60655;52.182;4.474;2023-09-08T04:54:09;101565.53;;;18.00;94.17
72612;BME280;60655;52.182;4.474;2023-09-08T04:56:10;101566.25;;;18.12;92.77
72612;BME280;60655;52.182;4.474;2023-09-08T04:58:11;101556.09;;;17.98;93.30
72612;BME280;60655;52.182;4.474;2023-09-08T05:00:12;101570.09;;;18.00;93.66
72612;BME280;60655;52.182;4.474;2023-09-08T05:02:13;101559.53;;;17.93;93.98
72612;BME280;60655;52.182;4.474;2023-09-08T05:04:14;101560.56;;;17.92;94.08
72612;BME280;60655;52.182;4.474;2023-09-08T05:06:15;101564.91;;;17.93;94.01
72612;BME280;60655;52.182;4.474;2023-09-08T05:08:16;101562.97;;;17.88;94.25
72612;BME280;60655;52.182;4.474;2023-09-08T05:10:17;101563.78;;;17.89;94.38
72612;BME280;60655;52.182;4.474;2023-09-08T05:12:18;101564.69;;;17.78;94.90
72612;BME280;60655;52.182;4.474;2023-09-08T05:14:19;101569.22;;;17.94;94.07
72612;BME280;60655;52.182;4.474;2023-09-08T05:16:20;101557.72;;;17.99;92.99
72612;BME280;60655;52.182;4.474;2023-09-08T05:18:40;101575.56;;;18.05;93.08
72612;BME280;60655;52.182;4.474;2023-09-08T05:20:41;101571.81;;;18.06;92.78
72612;BME280;60655;52.182;4.474;2023-09-08T05:22:42;101575.38;;;18.11;92.36
72612;BME280;60655;52.182;4.474;2023-09-08T05:24:43;101568.09;;;17.90;93.31
72612;BME280;60655;52.182;4.474;2023-09-08T05:26:44;101553.38;;;17.76;93.94
72612;BME280;60655;52.182;4.474;2023-09-08T05:28:44;101567.78;;;17.86;94.36
72612;BME280;60655;52.182;4.474;2023-09-08T05:30:46;101565.13;;;17.92;94.16
72612;BME280;60655;52.182;4.474;2023-09-08T05:32:46;101562.53;;;17.97;94.07
72612;BME280;60655;52.182;4.474;2023-09-08T05:34:47;101572.38;;;17.91;94.36
72612;BME280;60655;52.182;4.474;2023-09-08T05:36:48;101564.16;;;17.98;94.30
72612;BME280;60655;52.182;4.474;2023-09-08T05:38:49;101576.94;;;18.07;94.18
72612;BME280;60655;52.182;4.474;2023-09-08T05:40:50;101577.50;;;18.09;94.23
72612;BME280;60655;52.182;4.474;2023-09-08T05:42:51;101579.47;;;18.14;94.10
72612;BME280;60655;52.182;4.474;2023-09-08T05:44:52;101584.09;;;18.18;93.94
72612;BME280;60655;52.182;4.474;2023-09-08T05:46:55;101580.16;;;18.26;93.61
72612;BME280;60655;52.182;4.474;2023-09-08T05:48:56;101578.34;;;18.32;93.19
72612;BME280;60655;52.182;4.474;2023-09-08T05:50:57;101575.72;;;18.37;93.10
72612;BME280;60655;52.182;4.474;2023-09-08T05:52:58;101587.63;;;18.41;93.31
72612;BME280;60655;52.182;4.474;2023-09-08T05:54:59;101579.66;;;18.51;93.21
72612;BME280;60655;52.182;4.474;2023-09-08T05:57:00;101583.88;;;18.64;92.75
72612;BME280;60655;52.182;4.474;2023-09-08T05:59:01;101586.91;;;18.67;92.72
72612;BME280;60655;52.182;4.474;2023-09-08T06:01:03;101591.84;;;18.75;92.82
72612;BME280;60655;52.182;4.474;2023-09-08T06:03:04;101592.50;;;18.87;92.30
72612;BME280;60655;52.182;4.474;2023-09-08T06:05:06;101592.00;;;18.91;92.00
72612;BME280;60655;52.182;4.474;2023-09-08T06:07:07;101583.72;;;18.97;92.06
72612;BME280;60655;52.182;4.474;2023-09-08T06:09:08;101598.09;;;19.08;91.83
72612;BME280;60655;52.182;4.474;2023-09-08T06:11:09;101595.75;;;19.16;91.58
72612;BME280;60655;52.182;4.474;2023-09-08T06:13:10;101600.94;;;19.23;91.31
72612;BME280;60655;52.182;4.474;2023-09-08T06:15:11;101599.44;;;19.32;91.11
72612;BME280;60655;52.182;4.474;2023-09-08T06:17:12;101603.81;;;19.43;90.87
72612;BME280;60655;52.182;4.474;2023-09-08T06:19:13;101602.56;;;19.51;90.74
72612;BME280;60655;52.182;4.474;2023-09-08T06:21:14;101604.50;;;19.55;90.44
72612;BME280;60655;52.182;4.474;2023-09-08T06:23:15;101602.13;;;19.64;89.97
72612;BME280;60655;52.182;4.474;2023-09-08T06:25:16;101604.63;;;19.71;89.96
72612;BME280;60655;52.182;4.474;2023-09-08T06:27:17;101603.88;;;19.80;89.44
72612;BME280;60655;52.182;4.474;2023-09-08T06:29:18;101599.91;;;19.88;89.15
72612;BME280;60655;52.182;4.474;2023-09-08T06:31:19;101596.41;;;19.93;88.57
72612;BME280;60655;52.182;4.474;2023-09-08T06:33:20;101598.41;;;20.07;88.32
72612;BME280;60655;52.182;4.474;2023-09-08T06:35:22;101601.94;;;20.13;88.22
72612;BME280;60655;52.182;4.474;2023-09-08T06:37:23;101607.63;;;20.21;87.52
72612;BME280;60655;52.182;4.474;2023-09-08T06:39:25;101594.69;;;20.23;87.04
72612;BME280;60655;52.182;4.474;2023-09-08T06:41:26;101606.94;;;20.36;86.59
72612;BME280;60655;52.182;4.474;2023-09-08T06:43:28;101605.38;;;20.40;86.74
72612;BME280;60655;52.182;4.474;2023-09-08T06:45:29;101604.06;;;20.48;86.65
72612;BME280;60655;52.182;4.474;2023-09-08T06:47:29;101605.69;;;20.59;85.93
72612;BME280;60655;52.182;4.474;2023-09-08T06:49:30;101606.81;;;20.68;85.50
72612;BME280;60655;52.182;4.474;2023-09-08T06:51:31;101601.16;;;20.70;85.03
72612;BME280;60655;52.182;4.474;2023-09-08T06:53:32;101603.06;;;20.74;85.04
72612;BME280;60655;52.182;4.474;2023-09-08T06:55:34;101604.19;;;20.88;84.01
72612;BME280;60655;52.182;4.474;2023-09-08T06:57:35;101607.69;;;20.89;83.85
72612;BME280;60655;52.182;4.474;2023-09-08T06:59:36;101606.09;;;20.93;83.86
72612;BME280;60655;52.182;4.474;2023-09-08T07:01:37;101609.34;;;21.00;83.59
72612;BME280;60655;52.182;4.474;2023-09-08T07:03:38;101606.38;;;21.02;83.32
72612;BME280;60655;52.182;4.474;2023-09-08T07:05:39;101610.72;;;21.13;82.99
72612;BME280;60655;52.182;4.474;2023-09-08T07:07:40;101604.50;;;21.17;83.05
72612;BME280;60655;52.182;4.474;2023-09-08T07:09:41;101599.72;;;21.30;82.46
72612;BME280;60655;52.182;4.474;2023-09-08T07:11:42;101595.13;;;21.30;82.21
72612;BME280;60655;52.182;4.474;2023-09-08T07:13:43;101595.63;;;21.37;82.01
72612;BME280;60655;52.182;4.474;2023-09-08T07:15:45;101601.06;;;21.42;81.60
72612;BME280;60655;52.182;4.474;2023-09-08T07:17:46;101604.31;;;21.49;81.27
72612;BME280;60655;52.182;4.474;2023-09-08T07:19:47;101600.78;;;21.54;81.24
72612;BME280;60655;52.182;4.474;2023-09-08T07:21:48;101602.16;;;21.56;81.35
72612;BME280;60655;52.182;4.474;2023-09-08T07:23:49;101598.63;;;21.66;81.00
72612;BME280;60655;52.182;4.474;2023-09-08T07:25:50;101599.97;;;21.74;80.92
72612;BME280;60655;52.182;4.474;2023-09-08T07:27:51;101597.53;;;21.87;80.30
72612;BME280;60655;52.182;4.474;2023-09-08T07:29:54;101600.50;;;21.91;80.17
72612;BME280;60655;52.182;4.474;2023-09-08T07:31:55;101605.06;;;21.96;80.29
72612;BME280;60655;52.182;4.474;2023-09-08T07:33:56;101605.91;;;22.01;80.19
72612;BME280;60655;52.182;4.474;2023-09-08T07:35:57;101614.03;;;22.06;79.98
72612;BME280;60655;52.182;4.474;2023-09-08T07:37:58;101617.25;;;22.13;80.13
72612;BME280;60655;52.182;4.474;2023-09-08T07:39:59;101617.22;;;22.29;79.55
72612;BME280;60655;52.182;4.474;2023-09-08T07:41:59;101614.50;;;22.34;79.52
72612;BME280;60655;52.182;4.474;2023-09-08T07:44:00;101616.63;;;22.42;78.88
72612;BME280;60655;52.182;4.474;2023-09-08T07:46:01;101611.75;;;22.49;78.63
72612;BME280;60655;52.182;4.474;2023-09-08T07:48:02;101615.47;;;22.58;77.77
72612;BME280;60655;52.182;4.474;2023-09-08T07:50:21;101617.13;;;22.54;77.86
72612;BME280;60655;52.182;4.474;2023-09-08T07:52:22;101616.00;;;22.60;77.83
72612;BME280;60655;52.182;4.474;2023-09-08T07:54:23;101606.53;;;22.57;77.86
72612;BME280;60655;52.182;4.474;2023-09-08T07:56:24;101612.19;;;22.66;78.20
72612;BME280;60655;52.182;4.474;2023-09-08T07:58:25;101614.63;;;22.78;77.83
72612;BME280;60655;52.182;4.474;2023-09-08T08:00:26;101601.03;;;22.83;77.48
72612;BME280;60655;52.182;4.474;2023-09-08T08:02:28;101608.31;;;22.87;77.42
72612;BME280;60655;52.182;4.474;2023-09-08T08:04:29;101607.16;;;23.04;77.40
72612;BME280;60655;52.182;4.474;2023-09-08T08:06:30;101601.75;;;23.04;76.82
72612;BME280;60655;52.182;4.474;2023-09-08T08:08:31;101608.16;;;23.13;76.80
72612;BME280;60655;52.182;4.474;2023-09-08T08:10:32;101614.09;;;23.20;76.57
72612;BME280;60655;52.182;4.474;2023-09-08T08:12:34;101612.22;;;23.15;76.36
72612;BME280;60655;52.182;4.474;2023-09-08T08:14:35;101617.63;;;23.20;76.11
72612;BME280;60655;52.182;4.474;2023-09-08T08:16:35;101612.69;;;23.28;75.80
72612;BME280;60655;52.182;4.474;2023-09-08T08:18:36;101618.94;;;23.28;76.63
72612;BME280;60655;52.182;4.474;2023-09-08T08:20:38;101621.25;;;23.40;76.36
72612;BME280;60655;52.182;4.474;2023-09-08T08:22:39;101615.81;;;23.45;75.61
72612;BME280;60655;52.182;4.474;2023-09-08T08:24:39;101620.66;;;23.53;75.85
72612;BME280;60655;52.182;4.474;2023-09-08T08:26:40;101620.09;;;23.56;75.49
72612;BME280;60655;52.182;4.474;2023-09-08T08:28:41;101620.03;;;23.66;75.13
72612;BME280;60655;52.182;4.474;2023-09-08T08:30:42;101617.47;;;23.75;75.05
72612;BME280;60655;52.182;4.474;2023-09-08T08:32:43;101617.47;;;23.75;75.34
72612;BME280;60655;52.182;4.474;2023-09-08T08:34:44;101615.16;;;23.92;74.75
72612;BME280;60655;52.182;4.474;2023-09-08T08:36:45;101623.19;;;24.02;74.90
72612;BME280;60655;52.182;4.474;2023-09-08T08:38:46;101613.09;;;24.08;74.46
72612;BME280;60655;52.182;4.474;2023-09-08T08:40:47;101619.28;;;24.13;73.07
72612;BME280;60655;52.182;4.474;2023-09-08T08:42:54;101621.44;;;24.16;73.52
72612;BME280;60655;52.182;4.474;2023-09-08T08:44:55;101633.91;;;24.17;73.59
72612;BME280;60655;52.182;4.474;2023-09-08T08:46:57;101624.84;;;24.27;73.81
72612;BME280;60655;52.182;4.474;2023-09-08T08:49:00;101629.94;;;24.34;73.46
72612;BME280;60655;52.182;4.474;2023-09-08T08:51:02;101628.00;;;24.39;73.42
72612;BME280;60655;52.182;4.474;2023-09-08T08:53:04;101627.19;;;24.39;73.53
72612;BME280;60655;52.182;4.474;2023-09-08T08:55:06;101626.84;;;24.45;73.30
72612;BME280;60655;52.182;4.474;2023-09-08T08:57:07;101623.25;;;24.50;73.77
72612;BME280;60655;52.182;4.474;2023-09-08T08:59:09;101622.31;;;24.60;72.87
72612;BME280;60655;52.182;4.474;2023-09-08T09:01:12;101623.22;;;24.74;72.23
72612;BME280;60655;52.182;4.474;2023-09-08T09:03:16;101628.31;;;24.80;72.31
72612;BME280;60655;52.182;4.474;2023-09-08T09:05:18;101629.31;;;24.84;72.46
72612;BME280;60655;52.182;4.474;2023-09-08T09:07:20;101608.75;;;24.78;72.43
72612;BME280;60655;52.182;4.474;2023-09-08T09:09:21;101627.25;;;25.00;72.16
72612;BME280;60655;52.182;4.474;2023-09-08T09:11:23;101623.88;;;25.08;71.58
72612;BME280;60655;52.182;4.474;2023-09-08T09:13:24;101625.03;;;25.21;70.36
72612;BME280;60655;52.182;4.474;2023-09-08T09:15:31;101630.97;;;25.23;70.22
72612;BME280;60655;52.182;4.474;2023-09-08T09:17:33;101631.63;;;25.34;70.04
72612;BME280;60655;52.182;4.474;2023-09-08T09:19:35;101633.84;;;25.32;70.50
72612;BME280;60655;52.182;4.474;2023-09-08T09:21:46;101629.53;;;25.44;70.44
72612;BME280;60655;52.182;4.474;2023-09-08T09:23:48;101629.91;;;25.56;70.66
72612;BME280;60655;52.182;4.474;2023-09-08T09:25:50;101621.66;;;25.62;69.55
72612;BME280;60655;52.182;4.474;2023-09-08T09:27:52;101632.91;;;25.74;68.84
72612;BME280;60655;52.182;4.474;2023-09-08T09:29:53;101629.28;;;25.78;68.83
72612;BME280;60655;52.182;4.474;2023-09-08T09:31:56;101625.66;;;25.83;68.85
72612;BME280;60655;52.182;4.474;2023-09-08T09:34:02;101620.94;;;25.88;69.29
72612;BME280;60655;52.182;4.474;2023-09-08T09:36:05;101626.41;;;25.88;68.69
72612;BME280;60655;52.182;4.474;2023-09-08T09:38:07;101605.16;;;25.72;68.62
72612;BME280;60655;52.182;4.474;2023-09-08T09:40:09;101619.97;;;25.98;67.97
72612;BME280;60655;52.182;4.474;2023-09-08T09:42:13;101619.16;;;26.11;68.10
72612;BME280;60655;52.182;4.474;2023-09-08T09:44:15;101616.25;;;26.21;66.27
72612;BME280;60655;52.182;4.474;2023-09-08T09:46:16;101617.16;;;26.17;66.93
72612;BME280;60655;52.182;4.474;2023-09-08T09:48:19;101615.84;;;26.14;67.23
72612;BME280;60655;52.182;4.474;2023-09-08T09:50:37;101618.69;;;26.37;66.75
72612;BME280;60655;52.182;4.474;2023-09-08T09:52:40;101623.63;;;26.35;66.27
72612;BME280;60655;52.182;4.474;2023-09-08T09:54:42;101615.47;;;26.48;65.94
72612;BME280;60655;52.182;4.474;2023-09-08T09:56:43;101620.81;;;26.53;64.76
72612;BME280;60655;52.182;4.474;2023-09-08T09:58:45;101618.09;;;26.53;65.20
72612;BME280;60655;52.182;4.474;2023-09-08T10:00:46;101610.59;;;26.73;64.72
72612;BME280;60655;52.182;4.474;2023-09-08T10:02:50;101619.72;;;26.90;63.78
72612;BME280;60655;52.182;4.474;2023-09-08T10:04:53;101601.53;;;26.86;64.11
72612;BME280;60655;52.182;4.474;2023-09-08T10:06:54;101606.91;;;27.05;62.46
72612;BME280;60655;52.182;4.474;2023-09-08T10:08:59;101615.47;;;27.12;62.91
72612;BME280;60655;52.182;4.474;2023-09-08T10:11:05;101618.84;;;27.17;62.73
72612;BME280;60655;52.182;4.474;2023-09-08T10:13:10;101608.31;;;27.24;61.50
72612;BME280;60655;52.182;4.474;2023-09-08T10:15:13;101621.41;;;27.14;61.74
72612;BME280;60655;52.182;4.474;2023-09-08T10:17:18;101614.88;;;27.01;61.28
72612;BME280;60655;52.182;4.474;2023-09-08T10:19:21;101614.09;;;27.23;61.69
72612;BME280;60655;52.182;4.474;2023-09-08T10:21:25;101602.31;;;27.36;61.23
72612;BME280;60655;52.182;4.474;2023-09-08T10:23:33;101610.72;;;27.62;62.63
72612;BME280;60655;52.182;4.474;2023-09-08T10:25:42;101617.78;;;27.63;59.87
72612;BME280;60655;52.182;4.474;2023-09-08T10:27:44;101611.41;;;27.68;60.93
72612;BME280;60655;52.182;4.474;2023-09-08T10:29:46;101622.16;;;27.73;61.03
72612;BME280;60655;52.182;4.474;2023-09-08T10:31:48;101617.75;;;27.85;60.07
72612;BME280;60655;52.182;4.474;2023-09-08T10:33:49;101612.66;;;28.01;58.37
72612;BME280;60655;52.182;4.474;2023-09-08T10:35:51;101615.13;;;28.11;59.74
72612;BME280;60655;52.182;4.474;2023-09-08T10:40:23;101621.97;;;28.31;58.66
72612;BME280;60655;52.182;4.474;2023-09-08T10:42:25;101627.00;;;28.38;58.37